sensor_id;sensor_type;location;lat;lon;timestamp;P1;durP1;ratioP1;P2;durP2;ratioP2
19794;SDS011;10057;59.402;17.866;2022-10-23T00:01:12;6.40;;;3.77;;
19794;SDS011;10057;59.402;17.866;2022-10-23T00:03:59;7.23;;;4.03;;
19794;SDS011;10057;59.402;17.866;2022-10-23T00:06:32;10.07;;;3.87;;
19794;SDS011;10057;59.402;17.866;2022-10-23T00:08:59;6.63;;;3.90;;
19794;SDS011;10057;59.402;17.866;2022-10-23T00:11:27;8.03;;;3.70;;
19794;SDS011;10057;59.402;17.866;2022-10-23T00:13:56;8.23;;;4.20;;
19794;SDS011;10057;59.402;17.866;2022-10-23T00:16:25;7.40;;;4.33;;
19794;SDS011;10057;59.402;17.866;2022-10-23T00:18:53;8.70;;;3.87;;
19794;SDS011;10057;59.402;17.866;2022-10-23T00:21:20;10.47;;;3.73;;
19794;SDS011;10057;59.402;17.866;2022-10-23T00:23:48;10.07;;;3.90;;
19794;SDS011;10057;59.402;17.866;2022-10-23T00:26:15;7.93;;;4.13;;
19794;SDS011;10057;59.402;17.866;2022-10-23T00:28:42;7.20;;;3.63;;
19794;SDS011;10057;59.402;17.866;2022-10-23T00:31:10;7.30;;;3.73;;
19794;SDS011;10057;59.402;17.866;2022-10-23T00:33:37;8.17;;;4.03;;
19794;SDS011;10057;59.402;17.866;2022-10-23T00:36:04;7.93;;;3.67;;
19794;SDS011;10057;59.402;17.866;2022-10-23T00:38:32;7.03;;;3.83;;
19794;SDS011;10057;59.402;17.866;2022-10-23T00:40:59;7.57;;;3.90;;
19794;SDS011;10057;59.402;17.866;2022-10-23T00:43:28;7.17;;;3.97;;
19794;SDS011;10057;59.402;17.866;2022-10-23T00:45:56;8.20;;;3.97;;
19794;SDS011;10057;59.402;17.866;2022-10-23T00:48:24;7.43;;;3.83;;
19794;SDS011;10057;59.402;17.866;2022-10-23T00:50:52;8.33;;;3.93;;
19794;SDS011;10057;59.402;17.866;2022-10-23T00:53:20;8.17;;;4.23;;
19794;SDS011;10057;59.402;17.866;2022-10-23T00:55:48;8.10;;;4.57;;
19794;SDS011;10057;59.402;17.866;2022-10-23T00:58:19;10.13;;;3.70;;
19794;SDS011;10057;59.402;17.866;2022-10-23T01:00:50;7.67;;;3.93;;
19794;SDS011;10057;59.402;17.866;2022-10-23T01:03:20;6.53;;;3.77;;
19794;SDS011;10057;59.402;17.866;2022-10-23T01:05:56;7.37;;;3.73;;
19794;SDS011;10057;59.402;17.866;2022-10-23T01:08:31;8.07;;;3.97;;
19794;SDS011;10057;59.402;17.866;2022-10-23T01:11:24;6.70;;;3.97;;
19794;SDS011;10057;59.402;17.866;2022-10-23T01:14:02;9.47;;;4.17;;
19794;SDS011;10057;59.402;17.866;2022-10-23T01:22:08;7.17;;;4.20;;
19794;SDS011;10057;59.402;17.866;2022-10-23T01:28:04;7.63;;;4.27;;
19794;SDS011;10057;59.402;17.866;2022-10-23T01:30:34;6.97;;;3.80;;
19794;SDS011;10057;59.402;17.866;2022-10-23T01:33:08;8.00;;;4.27;;
19794;SDS011;10057;59.402;17.866;2022-10-23T01:35:59;8.50;;;4.07;;
19794;SDS011;10057;59.402;17.866;2022-10-23T01:38:41;8.97;;;4.03;;
19794;SDS011;10057;59.402;17.866;2022-10-23T01:41:28;7.27;;;3.97;;
19794;SDS011;10057;59.402;17.866;2022-10-23T01:46:32;8.43;;;4.50;;
19794;SDS011;10057;59.402;17.866;2022-10-23T01:49:04;6.83;;;4.00;;
19794;SDS011;10057;59.402;17.866;2022-10-23T01:51:34;9.90;;;4.70;;
19794;SDS011;10057;59.402;17.866;2022-10-23T01:54:04;6.97;;;3.70;;
19794;SDS011;10057;59.402;17.866;2022-10-23T01:56:34;9.80;;;4.00;;
19794;SDS011;10057;59.402;17.866;2022-10-23T01:59:05;11.20;;;4.00;;
19794;SDS011;10057;59.402;17.866;2022-10-23T02:01:36;7.07;;;4.20;;
19794;SDS011;10057;59.402;17.866;2022-10-23T02:04:08;6.67;;;3.53;;
19794;SDS011;10057;59.402;17.866;2022-10-23T02:06:38;6.67;;;3.73;;
19794;SDS011;10057;59.402;17.866;2022-10-23T02:09:04;6.70;;;3.23;;
19794;SDS011;10057;59.402;17.866;2022-10-23T02:11:33;9.93;;;4.10;;
19794;SDS011;10057;59.402;17.866;2022-10-23T02:14:11;6.77;;;3.73;;
19794;SDS011;10057;59.402;17.866;2022-10-23T02:16:47;6.30;;;3.50;;
19794;SDS011;10057;59.402;17.866;2022-10-23T02:27:17;7.53;;;4.10;;
19794;SDS011;10057;59.402;17.866;2022-10-23T02:29:54;6.57;;;3.77;;
19794;SDS011;10057;59.402;17.866;2022-10-23T02:32:26;6.33;;;3.53;;
19794;SDS011;10057;59.402;17.866;2022-10-23T02:34:54;7.20;;;3.63;;
19794;SDS011;10057;59.402;17.866;2022-10-23T02:37:21;7.07;;;3.53;;
19794;SDS011;10057;59.402;17.866;2022-10-23T02:39:48;6.03;;;3.47;;
19794;SDS011;10057;59.402;17.866;2022-10-23T02:42:35;7.83;;;3.83;;
19794;SDS011;10057;59.402;17.866;2022-10-23T02:45:05;5.90;;;3.27;;
19794;SDS011;10057;59.402;17.866;2022-10-23T02:54:10;5.53;;;3.47;;
19794;SDS011;10057;59.402;17.866;2022-10-23T02:56:39;7.43;;;3.83;;
19794;SDS011;10057;59.402;17.866;2022-10-23T02:59:09;6.13;;;3.37;;
19794;SDS011;10057;59.402;17.866;2022-10-23T03:01:50;6.97;;;3.73;;
19794;SDS011;10057;59.402;17.866;2022-10-23T03:04:22;7.60;;;3.23;;
19794;SDS011;10057;59.402;17.866;2022-10-23T03:06:51;6.93;;;3.60;;
19794;SDS011;10057;59.402;17.866;2022-10-23T03:09:17;6.50;;;3.60;;
19794;SDS011;10057;59.402;17.866;2022-10-23T03:11:44;9.23;;;3.77;;
19794;SDS011;10057;59.402;17.866;2022-10-23T03:14:11;6.33;;;3.60;;
19794;SDS011;10057;59.402;17.866;2022-10-23T03:16:38;6.13;;;3.60;;
19794;SDS011;10057;59.402;17.866;2022-10-23T03:19:05;7.30;;;3.80;;
19794;SDS011;10057;59.402;17.866;2022-10-23T03:21:32;6.83;;;3.83;;
19794;SDS011;10057;59.402;17.866;2022-10-23T03:23:58;6.57;;;3.37;;
19794;SDS011;10057;59.402;17.866;2022-10-23T03:26:25;6.70;;;3.30;;
19794;SDS011;10057;59.402;17.866;2022-10-23T03:28:51;6.30;;;3.00;;
19794;SDS011;10057;59.402;17.866;2022-10-23T03:31:18;7.50;;;4.17;;
19794;SDS011;10057;59.402;17.866;2022-10-23T03:33:45;7.37;;;3.87;;
19794;SDS011;10057;59.402;17.866;2022-10-23T03:36:11;7.17;;;3.70;;
19794;SDS011;10057;59.402;17.866;2022-10-23T03:38:38;6.63;;;3.70;;
19794;SDS011;10057;59.402;17.866;2022-10-23T03:41:05;7.87;;;4.20;;
19794;SDS011;10057;59.402;17.866;2022-10-23T03:43:31;7.33;;;3.97;;
19794;SDS011;10057;59.402;17.866;2022-10-23T03:45:58;8.00;;;3.20;;
19794;SDS011;10057;59.402;17.866;2022-10-23T03:48:26;12.73;;;3.67;;
19794;SDS011;10057;59.402;17.866;2022-10-23T03:50:53;7.80;;;3.70;;
19794;SDS011;10057;59.402;17.866;2022-10-23T03:53:19;7.97;;;3.80;;
19794;SDS011;10057;59.402;17.866;2022-10-23T03:55:46;7.53;;;3.83;;
19794;SDS011;10057;59.402;17.866;2022-10-23T03:58:12;6.60;;;3.80;;
19794;SDS011;10057;59.402;17.866;2022-10-23T04:00:39;7.73;;;4.27;;
19794;SDS011;10057;59.402;17.866;2022-10-23T04:03:11;9.00;;;3.90;;
19794;SDS011;10057;59.402;17.866;2022-10-23T04:05:39;7.60;;;4.27;;
19794;SDS011;10057;59.402;17.866;2022-10-23T04:08:07;8.67;;;3.93;;
19794;SDS011;10057;59.402;17.866;2022-10-23T04:10:33;8.00;;;4.07;;
19794;SDS011;10057;59.402;17.866;2022-10-23T04:13:00;7.40;;;3.60;;
19794;SDS011;10057;59.402;17.866;2022-10-23T04:15:27;6.00;;;3.60;;
19794;SDS011;10057;59.402;17.866;2022-10-23T04:17:53;8.67;;;4.17;;
19794;SDS011;10057;59.402;17.866;2022-10-23T04:20:20;8.07;;;3.37;;
19794;SDS011;10057;59.402;17.866;2022-10-23T04:22:46;7.87;;;4.20;;
19794;SDS011;10057;59.402;17.866;2022-10-23T04:25:13;7.53;;;3.83;;
19794;SDS011;10057;59.402;17.866;2022-10-23T04:27:41;6.43;;;3.13;;
19794;SDS011;10057;59.402;17.866;2022-10-23T04:30:08;8.60;;;3.90;;
19794;SDS011;10057;59.402;17.866;2022-10-23T04:32:35;9.93;;;4.30;;
19794;SDS011;10057;59.402;17.866;2022-10-23T04:35:02;6.37;;;3.33;;
19794;SDS011;10057;59.402;17.866;2022-10-23T04:37:29;8.43;;;4.30;;
19794;SDS011;10057;59.402;17.866;2022-10-23T04:39:56;6.53;;;3.60;;
19794;SDS011;10057;59.402;17.866;2022-10-23T04:42:23;9.87;;;3.50;;
19794;SDS011;10057;59.402;17.866;2022-10-23T04:44:49;9.27;;;4.20;;
19794;SDS011;10057;59.402;17.866;2022-10-23T04:47:16;6.60;;;3.43;;
19794;SDS011;10057;59.402;17.866;2022-10-23T04:49:42;7.27;;;3.70;;
19794;SDS011;10057;59.402;17.866;2022-10-23T04:52:09;7.43;;;3.80;;
19794;SDS011;10057;59.402;17.866;2022-10-23T04:54:36;9.00;;;4.13;;
19794;SDS011;10057;59.402;17.866;2022-10-23T04:57:04;7.27;;;3.77;;
19794;SDS011;10057;59.402;17.866;2022-10-23T04:59:30;8.50;;;3.83;;
19794;SDS011;10057;59.402;17.866;2022-10-23T05:01:57;10.03;;;3.93;;
19794;SDS011;10057;59.402;17.866;2022-10-23T05:04:24;8.27;;;3.67;;
19794;SDS011;10057;59.402;17.866;2022-10-23T05:06:50;7.10;;;3.80;;
19794;SDS011;10057;59.402;17.866;2022-10-23T05:09:17;8.13;;;3.73;;
19794;SDS011;10057;59.402;17.866;2022-10-23T05:11:44;8.83;;;4.07;;
19794;SDS011;10057;59.402;17.866;2022-10-23T05:14:10;9.07;;;3.27;;
19794;SDS011;10057;59.402;17.866;2022-10-23T05:19:10;10.07;;;4.07;;
19794;SDS011;10057;59.402;17.866;2022-10-23T05:21:49;7.00;;;3.67;;
19794;SDS011;10057;59.402;17.866;2022-10-23T05:24:21;11.67;;;4.73;;
19794;SDS011;10057;59.402;17.866;2022-10-23T05:26:48;8.47;;;4.00;;
19794;SDS011;10057;59.402;17.866;2022-10-23T05:29:18;8.13;;;4.00;;
19794;SDS011;10057;59.402;17.866;2022-10-23T05:31:45;8.23;;;4.27;;
19794;SDS011;10057;59.402;17.866;2022-10-23T05:34:17;8.60;;;4.57;;
19794;SDS011;10057;59.402;17.866;2022-10-23T05:36:47;9.53;;;4.40;;
19794;SDS011;10057;59.402;17.866;2022-10-23T05:39:14;9.07;;;4.30;;
19794;SDS011;10057;59.402;17.866;2022-10-23T05:41:41;9.30;;;4.60;;
19794;SDS011;10057;59.402;17.866;2022-10-23T05:44:08;10.20;;;4.50;;
19794;SDS011;10057;59.402;17.866;2022-10-23T05:46:39;8.20;;;4.07;;
19794;SDS011;10057;59.402;17.866;2022-10-23T05:49:08;8.30;;;4.43;;
19794;SDS011;10057;59.402;17.866;2022-10-23T05:51:35;13.17;;;4.03;;
19794;SDS011;10057;59.402;17.866;2022-10-23T05:54:03;8.40;;;4.37;;
19794;SDS011;10057;59.402;17.866;2022-10-23T05:56:36;8.03;;;4.10;;
19794;SDS011;10057;59.402;17.866;2022-10-23T05:59:06;9.00;;;4.10;;
19794;SDS011;10057;59.402;17.866;2022-10-23T06:01:33;9.87;;;4.30;;
19794;SDS011;10057;59.402;17.866;2022-10-23T06:04:00;9.53;;;4.17;;
19794;SDS011;10057;59.402;17.866;2022-10-23T06:06:27;8.53;;;4.07;;
19794;SDS011;10057;59.402;17.866;2022-10-23T06:08:54;7.33;;;3.83;;
19794;SDS011;10057;59.402;17.866;2022-10-23T06:11:21;9.83;;;4.30;;
19794;SDS011;10057;59.402;17.866;2022-10-23T06:13:48;9.30;;;4.33;;
19794;SDS011;10057;59.402;17.866;2022-10-23T06:16:16;10.23;;;4.40;;
19794;SDS011;10057;59.402;17.866;2022-10-23T06:18:45;11.17;;;4.63;;
19794;SDS011;10057;59.402;17.866;2022-10-23T06:21:13;7.87;;;3.67;;
19794;SDS011;10057;59.402;17.866;2022-10-23T06:23:41;8.00;;;4.13;;
19794;SDS011;10057;59.402;17.866;2022-10-23T06:26:09;7.73;;;4.17;;
19794;SDS011;10057;59.402;17.866;2022-10-23T06:28:38;9.50;;;4.43;;
19794;SDS011;10057;59.402;17.866;2022-10-23T06:31:05;11.63;;;4.60;;
19794;SDS011;10057;59.402;17.866;2022-10-23T06:33:34;8.70;;;4.50;;
19794;SDS011;10057;59.402;17.866;2022-10-23T06:36:01;9.27;;;4.10;;
19794;SDS011;10057;59.402;17.866;2022-10-23T06:38:28;10.30;;;4.93;;
19794;SDS011;10057;59.402;17.866;2022-10-23T06:41:02;10.77;;;4.70;;
19794;SDS011;10057;59.402;17.866;2022-10-23T06:43:29;8.17;;;4.20;;
19794;SDS011;10057;59.402;17.866;2022-10-23T06:45:58;9.53;;;4.57;;
19794;SDS011;10057;59.402;17.866;2022-10-23T06:48:26;8.03;;;4.33;;
19794;SDS011;10057;59.402;17.866;2022-10-23T06:50:52;12.03;;;4.30;;
19794;SDS011;10057;59.402;17.866;2022-10-23T06:53:22;9.33;;;4.40;;
19794;SDS011;10057;59.402;17.866;2022-10-23T06:55:50;8.73;;;4.30;;
19794;SDS011;10057;59.402;17.866;2022-10-23T06:58:20;12.17;;;4.40;;
19794;SDS011;10057;59.402;17.866;2022-10-23T07:00:47;9.60;;;4.50;;
19794;SDS011;10057;59.402;17.866;2022-10-23T07:03:13;9.60;;;4.40;;
19794;SDS011;10057;59.402;17.866;2022-10-23T07:05:40;9.77;;;4.33;;
19794;SDS011;10057;59.402;17.866;2022-10-23T07:08:10;8.67;;;4.20;;
19794;SDS011;10057;59.402;17.866;2022-10-23T07:10:36;8.97;;;4.30;;
19794;SDS011;10057;59.402;17.866;2022-10-23T07:13:03;9.13;;;4.70;;
19794;SDS011;10057;59.402;17.866;2022-10-23T07:15:30;9.37;;;4.80;;
19794;SDS011;10057;59.402;17.866;2022-10-23T07:17:56;9.80;;;4.40;;
19794;SDS011;10057;59.402;17.866;2022-10-23T07:20:23;8.33;;;3.97;;
19794;SDS011;10057;59.402;17.866;2022-10-23T07:22:53;8.47;;;4.10;;
19794;SDS011;10057;59.402;17.866;2022-10-23T07:25:21;7.07;;;3.73;;
19794;SDS011;10057;59.402;17.866;2022-10-23T07:27:49;8.20;;;3.90;;
19794;SDS011;10057;59.402;17.866;2022-10-23T07:30:16;7.87;;;3.67;;
19794;SDS011;10057;59.402;17.866;2022-10-23T07:32:43;8.20;;;4.20;;
19794;SDS011;10057;59.402;17.866;2022-10-23T07:35:10;9.63;;;4.30;;
19794;SDS011;10057;59.402;17.866;2022-10-23T07:37:38;8.90;;;4.20;;
19794;SDS011;10057;59.402;17.866;2022-10-23T07:40:05;7.30;;;3.83;;
19794;SDS011;10057;59.402;17.866;2022-10-23T07:42:32;7.00;;;3.40;;
19794;SDS011;10057;59.402;17.866;2022-10-23T07:44:59;9.20;;;4.43;;
19794;SDS011;10057;59.402;17.866;2022-10-23T07:47:25;6.60;;;3.67;;
19794;SDS011;10057;59.402;17.866;2022-10-23T07:49:52;8.00;;;3.63;;
19794;SDS011;10057;59.402;17.866;2022-10-23T07:52:19;7.37;;;3.50;;
19794;SDS011;10057;59.402;17.866;2022-10-23T07:54:48;6.97;;;3.40;;
19794;SDS011;10057;59.402;17.866;2022-10-23T07:57:16;10.20;;;4.50;;
19794;SDS011;10057;59.402;17.866;2022-10-23T07:59:43;7.90;;;4.07;;
19794;SDS011;10057;59.402;17.866;2022-10-23T08:02:11;7.70;;;3.77;;
19794;SDS011;10057;59.402;17.866;2022-10-23T08:04:39;7.47;;;3.63;;
19794;SDS011;10057;59.402;17.866;2022-10-23T08:07:06;9.50;;;3.90;;
19794;SDS011;10057;59.402;17.866;2022-10-23T08:09:33;7.87;;;3.83;;
19794;SDS011;10057;59.402;17.866;2022-10-23T08:12:00;7.23;;;3.50;;
19794;SDS011;10057;59.402;17.866;2022-10-23T08:14:27;5.67;;;3.27;;
19794;SDS011;10057;59.402;17.866;2022-10-23T08:16:56;7.20;;;4.00;;
19794;SDS011;10057;59.402;17.866;2022-10-23T08:19:23;7.63;;;3.30;;
19794;SDS011;10057;59.402;17.866;2022-10-23T08:21:49;6.60;;;3.63;;
19794;SDS011;10057;59.402;17.866;2022-10-23T08:24:19;9.47;;;4.10;;
19794;SDS011;10057;59.402;17.866;2022-10-23T08:26:47;7.40;;;3.50;;
19794;SDS011;10057;59.402;17.866;2022-10-23T08:29:15;7.93;;;3.50;;
19794;SDS011;10057;59.402;17.866;2022-10-23T08:31:41;6.63;;;3.30;;
19794;SDS011;10057;59.402;17.866;2022-10-23T08:34:08;7.33;;;3.43;;
19794;SDS011;10057;59.402;17.866;2022-10-23T08:36:35;7.93;;;3.53;;
19794;SDS011;10057;59.402;17.866;2022-10-23T08:39:04;8.53;;;4.20;;
19794;SDS011;10057;59.402;17.866;2022-10-23T08:41:35;7.47;;;3.70;;
19794;SDS011;10057;59.402;17.866;2022-10-23T08:44:21;6.37;;;3.47;;
19794;SDS011;10057;59.402;17.866;2022-10-23T08:46:49;6.57;;;3.43;;
19794;SDS011;10057;59.402;17.866;2022-10-23T08:49:29;8.60;;;3.60;;
19794;SDS011;10057;59.402;17.866;2022-10-23T08:52:01;8.60;;;3.77;;
19794;SDS011;10057;59.402;17.866;2022-10-23T08:54:45;8.10;;;3.47;;
19794;SDS011;10057;59.402;17.866;2022-10-23T08:57:29;6.93;;;3.50;;
19794;SDS011;10057;59.402;17.866;2022-10-23T09:00:11;7.63;;;3.33;;
19794;SDS011;10057;59.402;17.866;2022-10-23T09:02:43;5.97;;;3.47;;
19794;SDS011;10057;59.402;17.866;2022-10-23T09:05:17;7.60;;;4.03;;
19794;SDS011;10057;59.402;17.866;2022-10-23T09:19:13;5.70;;;3.23;;
19794;SDS011;10057;59.402;17.866;2022-10-23T09:21:46;8.77;;;3.77;;
19794;SDS011;10057;59.402;17.866;2022-10-23T09:24:18;7.20;;;3.30;;
19794;SDS011;10057;59.402;17.866;2022-10-23T09:26:47;5.80;;;3.50;;
19794;SDS011;10057;59.402;17.866;2022-10-23T09:29:23;5.40;;;3.40;;
19794;SDS011;10057;59.402;17.866;2022-10-23T09:31:55;6.03;;;3.23;;
19794;SDS011;10057;59.402;17.866;2022-10-23T09:34:25;7.73;;;2.90;;
19794;SDS011;10057;59.402;17.866;2022-10-23T09:37:03;6.53;;;3.27;;
19794;SDS011;10057;59.402;17.866;2022-10-23T09:42:48;7.57;;;3.20;;
19794;SDS011;10057;59.402;17.866;2022-10-23T09:45:27;6.20;;;3.73;;
19794;SDS011;10057;59.402;17.866;2022-10-23T09:48:04;5.43;;;2.80;;
19794;SDS011;10057;59.402;17.866;2022-10-23T09:50:40;5.50;;;3.00;;
19794;SDS011;10057;59.402;17.866;2022-10-23T09:53:14;5.73;;;2.97;;
19794;SDS011;10057;59.402;17.866;2022-10-23T09:55:53;9.00;;;3.30;;
19794;SDS011;10057;59.402;17.866;2022-10-23T09:58:32;5.97;;;3.07;;
19794;SDS011;10057;59.402;17.866;2022-10-23T10:01:01;5.17;;;2.97;;
19794;SDS011;10057;59.402;17.866;2022-10-23T10:03:29;6.07;;;2.73;;
19794;SDS011;10057;59.402;17.866;2022-10-23T10:06:00;5.53;;;2.90;;
19794;SDS011;10057;59.402;17.866;2022-10-23T10:11:09;5.13;;;2.90;;
19794;SDS011;10057;59.402;17.866;2022-10-23T10:14:17;6.50;;;2.20;;
19794;SDS011;10057;59.402;17.866;2022-10-23T10:17:04;5.67;;;2.57;;
19794;SDS011;10057;59.402;17.866;2022-10-23T10:19:48;6.03;;;2.63;;
19794;SDS011;10057;59.402;17.866;2022-10-23T10:22:39;11.17;;;2.67;;
19794;SDS011;10057;59.402;17.866;2022-10-23T10:25:30;5.50;;;2.53;;
19794;SDS011;10057;59.402;17.866;2022-10-23T10:31:01;6.07;;;2.70;;
19794;SDS011;10057;59.402;17.866;2022-10-23T10:33:48;7.10;;;2.90;;
19794;SDS011;10057;59.402;17.866;2022-10-23T10:39:10;4.73;;;2.60;;
19794;SDS011;10057;59.402;17.866;2022-10-23T10:45:02;5.43;;;2.63;;
19794;SDS011;10057;59.402;17.866;2022-10-23T10:47:47;4.13;;;2.17;;
19794;SDS011;10057;59.402;17.866;2022-10-23T10:50:25;3.50;;;2.30;;
19794;SDS011;10057;59.402;17.866;2022-10-23T10:53:05;3.93;;;2.13;;
19794;SDS011;10057;59.402;17.866;2022-10-23T10:55:43;4.03;;;2.30;;
19794;SDS011;10057;59.402;17.866;2022-10-23T10:58:35;7.10;;;1.90;;
19794;SDS011;10057;59.402;17.866;2022-10-23T11:01:18;3.50;;;2.03;;
19794;SDS011;10057;59.402;17.866;2022-10-23T11:03:56;2.90;;;1.43;;
19794;SDS011;10057;59.402;17.866;2022-10-23T11:06:30;4.27;;;1.73;;
19794;SDS011;10057;59.402;17.866;2022-10-23T11:09:02;6.23;;;1.47;;
19794;SDS011;10057;59.402;17.866;2022-10-23T11:11:46;2.83;;;1.57;;
19794;SDS011;10057;59.402;17.866;2022-10-23T11:14:17;4.37;;;1.70;;
19794;SDS011;10057;59.402;17.866;2022-10-23T11:16:56;4.50;;;1.37;;
19794;SDS011;10057;59.402;17.866;2022-10-23T11:19:42;3.13;;;1.67;;
19794;SDS011;10057;59.402;17.866;2022-10-23T11:22:22;1.90;;;1.17;;
19794;SDS011;10057;59.402;17.866;2022-10-23T11:38:34;3.80;;;1.53;;
19794;SDS011;10057;59.402;17.866;2022-10-23T11:41:04;3.00;;;1.40;;
19794;SDS011;10057;59.402;17.866;2022-10-23T11:43:54;3.03;;;1.00;;
19794;SDS011;10057;59.402;17.866;2022-10-23T11:46:36;2.10;;;1.17;;
19794;SDS011;10057;59.402;17.866;2022-10-23T11:49:04;3.23;;;1.00;;
19794;SDS011;10057;59.402;17.866;2022-10-23T11:51:44;2.53;;;1.30;;
19794;SDS011;10057;59.402;17.866;2022-10-23T11:56:50;1.87;;;1.07;;
19794;SDS011;10057;59.402;17.866;2022-10-23T11:59:28;2.13;;;1.20;;
19794;SDS011;10057;59.402;17.866;2022-10-23T12:01:58;2.47;;;1.33;;
19794;SDS011;10057;59.402;17.866;2022-10-23T12:04:50;3.57;;;1.47;;
19794;SDS011;10057;59.402;17.866;2022-10-23T12:09:58;1.80;;;1.30;;
19794;SDS011;10057;59.402;17.866;2022-10-23T12:12:29;3.13;;;1.53;;
19794;SDS011;10057;59.402;17.866;2022-10-23T12:17:44;2.73;;;1.70;;
19794;SDS011;10057;59.402;17.866;2022-10-23T12:28:33;1.37;;;0.70;;
19794;SDS011;10057;59.402;17.866;2022-10-23T12:31:06;1.63;;;0.87;;
19794;SDS011;10057;59.402;17.866;2022-10-23T12:37:44;2.50;;;1.50;;
19794;SDS011;10057;59.402;17.866;2022-10-23T12:39:53;0.73;;;0.50;;
19794;SDS011;10057;59.402;17.866;2022-10-23T12:42:22;1.80;;;0.63;;
19794;SDS011;10057;59.402;17.866;2022-10-23T12:44:58;0.87;;;0.33;;
19794;SDS011;10057;59.402;17.866;2022-10-23T12:47:24;0.70;;;0.50;;
19794;SDS011;10057;59.402;17.866;2022-10-23T12:49:52;2.70;;;0.70;;
19794;SDS011;10057;59.402;17.866;2022-10-23T12:52:19;1.90;;;0.70;;
19794;SDS011;10057;59.402;17.866;2022-10-23T12:54:46;1.27;;;0.40;;
19794;SDS011;10057;59.402;17.866;2022-10-23T12:59:54;2.57;;;0.73;;
19794;SDS011;10057;59.402;17.866;2022-10-23T13:04:51;1.87;;;0.70;;
19794;SDS011;10057;59.402;17.866;2022-10-23T13:07:21;2.50;;;0.80;;
19794;SDS011;10057;59.402;17.866;2022-10-23T13:09:51;1.30;;;0.80;;
19794;SDS011;10057;59.402;17.866;2022-10-23T13:12:22;1.97;;;0.87;;
19794;SDS011;10057;59.402;17.866;2022-10-23T13:17:43;0.73;;;0.50;;
19794;SDS011;10057;59.402;17.866;2022-10-23T13:22:47;1.37;;;0.60;;
19794;SDS011;10057;59.402;17.866;2022-10-23T13:25:35;1.27;;;0.60;;
19794;SDS011;10057;59.402;17.866;2022-10-23T13:30:41;0.80;;;0.60;;
19794;SDS011;10057;59.402;17.866;2022-10-23T13:38:46;1.80;;;0.90;;
19794;SDS011;10057;59.402;17.866;2022-10-23T13:41:41;1.80;;;1.33;;
19794;SDS011;10057;59.402;17.866;2022-10-23T13:44:16;2.77;;;0.60;;
19794;SDS011;10057;59.402;17.866;2022-10-23T13:46:45;2.57;;;0.87;;
19794;SDS011;10057;59.402;17.866;2022-10-23T13:49:14;1.50;;;0.70;;
19794;SDS011;10057;59.402;17.866;2022-10-23T13:51:51;1.43;;;0.70;;
19794;SDS011;10057;59.402;17.866;2022-10-23T13:54:23;1.57;;;0.87;;
19794;SDS011;10057;59.402;17.866;2022-10-23T13:56:53;2.13;;;0.73;;
19794;SDS011;10057;59.402;17.866;2022-10-23T13:59:20;1.10;;;0.70;;
19794;SDS011;10057;59.402;17.866;2022-10-23T14:01:48;1.83;;;0.80;;
19794;SDS011;10057;59.402;17.866;2022-10-23T14:04:16;3.43;;;0.90;;
19794;SDS011;10057;59.402;17.866;2022-10-23T14:06:43;2.63;;;1.03;;
19794;SDS011;10057;59.402;17.866;2022-10-23T14:09:11;2.67;;;0.93;;
19794;SDS011;10057;59.402;17.866;2022-10-23T14:11:43;3.73;;;1.37;;
19794;SDS011;10057;59.402;17.866;2022-10-23T14:14:10;3.73;;;1.00;;
19794;SDS011;10057;59.402;17.866;2022-10-23T14:16:37;1.90;;;1.07;;
19794;SDS011;10057;59.402;17.866;2022-10-23T14:19:04;1.33;;;0.80;;
19794;SDS011;10057;59.402;17.866;2022-10-23T14:21:30;1.37;;;0.83;;
19794;SDS011;10057;59.402;17.866;2022-10-23T14:23:57;1.60;;;1.00;;
19794;SDS011;10057;59.402;17.866;2022-10-23T14:26:25;2.37;;;1.00;;
19794;SDS011;10057;59.402;17.866;2022-10-23T14:28:55;2.97;;;1.00;;
19794;SDS011;10057;59.402;17.866;2022-10-23T14:31:30;1.40;;;0.87;;
19794;SDS011;10057;59.402;17.866;2022-10-23T14:33:57;1.40;;;0.90;;
19794;SDS011;10057;59.402;17.866;2022-10-23T14:36:26;4.07;;;1.20;;
19794;SDS011;10057;59.402;17.866;2022-10-23T14:39:14;1.57;;;1.10;;
19794;SDS011;10057;59.402;17.866;2022-10-23T14:41:40;4.00;;;1.20;;
19794;SDS011;10057;59.402;17.866;2022-10-23T14:44:07;1.90;;;1.13;;
19794;SDS011;10057;59.402;17.866;2022-10-23T14:46:34;2.00;;;1.10;;
19794;SDS011;10057;59.402;17.866;2022-10-23T14:49:03;2.10;;;1.23;;
19794;SDS011;10057;59.402;17.866;2022-10-23T14:51:30;3.50;;;1.37;;
19794;SDS011;10057;59.402;17.866;2022-10-23T14:53:58;3.03;;;1.10;;
19794;SDS011;10057;59.402;17.866;2022-10-23T14:56:31;2.77;;;1.70;;
19794;SDS011;10057;59.402;17.866;2022-10-23T14:58:59;5.00;;;1.80;;
19794;SDS011;10057;59.402;17.866;2022-10-23T15:01:30;3.07;;;1.50;;
19794;SDS011;10057;59.402;17.866;2022-10-23T15:03:58;4.07;;;1.50;;
19794;SDS011;10057;59.402;17.866;2022-10-23T15:06:25;2.97;;;1.43;;
19794;SDS011;10057;59.402;17.866;2022-10-23T15:08:52;5.27;;;2.13;;
19794;SDS011;10057;59.402;17.866;2022-10-23T15:11:21;7.07;;;2.97;;
19794;SDS011;10057;59.402;17.866;2022-10-23T15:13:48;4.60;;;2.57;;
19794;SDS011;10057;59.402;17.866;2022-10-23T15:16:15;3.93;;;2.00;;
19794;SDS011;10057;59.402;17.866;2022-10-23T15:18:42;3.40;;;1.70;;
19794;SDS011;10057;59.402;17.866;2022-10-23T15:21:09;4.73;;;1.70;;
19794;SDS011;10057;59.402;17.866;2022-10-23T15:23:36;3.27;;;2.17;;
19794;SDS011;10057;59.402;17.866;2022-10-23T15:26:06;3.10;;;1.63;;
19794;SDS011;10057;59.402;17.866;2022-10-23T15:28:34;2.43;;;1.63;;
19794;SDS011;10057;59.402;17.866;2022-10-23T15:31:01;6.90;;;2.00;;
19794;SDS011;10057;59.402;17.866;2022-10-23T15:33:28;3.00;;;1.70;;
19794;SDS011;10057;59.402;17.866;2022-10-23T15:35:55;3.53;;;1.90;;
19794;SDS011;10057;59.402;17.866;2022-10-23T15:38:22;7.23;;;3.23;;
19794;SDS011;10057;59.402;17.866;2022-10-23T15:40:49;7.50;;;4.37;;
19794;SDS011;10057;59.402;17.866;2022-10-23T15:43:16;8.13;;;4.30;;
19794;SDS011;10057;59.402;17.866;2022-10-23T15:45:43;7.17;;;3.70;;
19794;SDS011;10057;59.402;17.866;2022-10-23T15:48:10;12.30;;;5.60;;
19794;SDS011;10057;59.402;17.866;2022-10-23T15:50:37;7.30;;;4.60;;
19794;SDS011;10057;59.402;17.866;2022-10-23T15:53:04;10.50;;;6.80;;
19794;SDS011;10057;59.402;17.866;2022-10-23T15:55:31;11.47;;;7.60;;
19794;SDS011;10057;59.402;17.866;2022-10-23T15:57:58;14.87;;;8.70;;
19794;SDS011;10057;59.402;17.866;2022-10-23T16:00:29;12.63;;;6.77;;
19794;SDS011;10057;59.402;17.866;2022-10-23T16:02:56;9.77;;;5.33;;
19794;SDS011;10057;59.402;17.866;2022-10-23T16:05:23;5.80;;;3.63;;
19794;SDS011;10057;59.402;17.866;2022-10-23T16:07:50;4.50;;;2.40;;
19794;SDS011;10057;59.402;17.866;2022-10-23T16:10:16;4.63;;;2.30;;
19794;SDS011;10057;59.402;17.866;2022-10-23T16:12:44;5.50;;;2.80;;
19794;SDS011;10057;59.402;17.866;2022-10-23T16:15:11;5.20;;;2.53;;
19794;SDS011;10057;59.402;17.866;2022-10-23T16:17:38;7.93;;;3.70;;
19794;SDS011;10057;59.402;17.866;2022-10-23T16:20:05;8.37;;;3.87;;
19794;SDS011;10057;59.402;17.866;2022-10-23T16:22:33;16.33;;;6.57;;
19794;SDS011;10057;59.402;17.866;2022-10-23T16:24:59;39.93;;;17.67;;
19794;SDS011;10057;59.402;17.866;2022-10-23T16:27:26;50.03;;;23.10;;
19794;SDS011;10057;59.402;17.866;2022-10-23T16:29:53;24.07;;;8.70;;
19794;SDS011;10057;59.402;17.866;2022-10-23T16:32:19;31.97;;;10.17;;
19794;SDS011;10057;59.402;17.866;2022-10-23T16:34:46;34.50;;;9.53;;
19794;SDS011;10057;59.402;17.866;2022-10-23T16:37:13;32.50;;;9.13;;
19794;SDS011;10057;59.402;17.866;2022-10-23T16:39:40;24.60;;;8.27;;